createdAt,value
2018-11-12T00:01:35.425Z,101124.03
2018-11-12T00:04:06.876Z,101127.91
2018-11-12T00:06:36.528Z,101138.87
2018-11-12T00:09:08.105Z,101140.11
2018-11-12T00:11:38.131Z,101137.53
2018-11-12T00:14:08.545Z,101134.47
2018-11-12T00:16:38.191Z,101138.53
2018-11-12T00:19:10.053Z,101140.70
2018-11-12T00:21:39.868Z,101143.70
2018-11-12T00:24:09.725Z,101155.73
2018-11-12T00:26:39.866Z,101161.95
2018-11-12T00:29:09.666Z,101159.55
2018-11-12T00:31:40.834Z,101156.42
2018-11-12T00:34:10.578Z,101154.88
2018-11-12T00:36:40.356Z,101160.98
2018-11-12T00:39:12.072Z,101163.14
2018-11-12T00:41:42.677Z,101160.52
2018-11-12T00:44:12.583Z,101154.61
2018-11-12T00:46:42.351Z,101165.89
2018-11-12T00:49:12.001Z,101169.06
2018-11-12T00:51:41.828Z,101168.95
2018-11-12T00:54:11.618Z,101170.27
2018-11-12T00:56:43.349Z,101169.41
2018-11-12T00:59:13.636Z,101170.91
2018-11-12T01:01:43.459Z,101181.20
2018-11-12T01:04:13.350Z,101192.28
2018-11-12T01:06:44.163Z,101201.95
2018-11-12T01:09:14.101Z,101204.69
2018-11-12T01:11:48.686Z,101189.04
2018-11-12T01:14:22.321Z,101196.66
2018-11-12T01:16:52.245Z,101199.28
2018-11-12T01:19:22.277Z,101201.41
2018-11-12T01:21:52.356Z,101197.00
2018-11-12T01:24:23.117Z,101193.48
2018-11-12T01:26:53.593Z,101203.14
2018-11-12T01:29:24.185Z,101205.58
2018-11-12T01:31:56.391Z,101211.20
2018-11-12T01:34:28.694Z,101215.97
2018-11-12T01:36:58.397Z,101209.89
2018-11-12T01:39:28.139Z,101210.78
2018-11-12T01:41:57.902Z,101219.22
2018-11-12T01:44:27.654Z,101227.09
2018-11-12T01:46:58.897Z,101222.73
2018-11-12T01:49:30.675Z,101216.59
2018-11-12T01:52:00.411Z,101209.94
2018-11-12T01:54:30.051Z,101203.17
2018-11-12T01:56:59.686Z,101207.88
2018-11-12T01:59:29.488Z,101208.27
2018-11-12T02:01:59.290Z,101209.58
2018-11-12T02:04:29.664Z,101218.39
2018-11-12T02:06:59.374Z,101220.95
2018-11-12T02:09:29.725Z,101207.61
2018-11-12T02:11:59.481Z,101210.06
2018-11-12T02:14:29.278Z,101211.57
2018-11-12T02:16:59.116Z,101217.17
2018-11-12T02:19:29.054Z,101225.56
2018-11-12T02:21:58.854Z,101221.20
2018-11-12T02:24:28.865Z,101220.19
2018-11-12T02:26:58.562Z,101226.11
2018-11-12T02:29:28.192Z,101230.86
2018-11-12T02:31:57.924Z,101223.94
2018-11-12T02:34:27.620Z,101225.25
2018-11-12T02:36:57.459Z,101223.05
2018-11-12T02:39:27.122Z,101213.31
2018-11-12T02:41:57.227Z,101210.11
2018-11-12T02:44:28.565Z,101210.03
2018-11-12T02:46:58.257Z,101218.80
2018-11-12T02:49:27.961Z,101209.06
2018-11-12T02:51:57.650Z,101203.66
2018-11-12T02:54:27.298Z,101214.52
2018-11-12T02:56:56.995Z,101230.28
2018-11-12T02:59:26.653Z,101231.38
2018-11-12T03:01:56.350Z,101236.09
2018-11-12T03:04:26.011Z,101228.70
2018-11-12T03:06:55.636Z,101239.41
2018-11-12T03:09:25.549Z,101242.04
2018-11-12T03:11:56.236Z,101241.42
2018-11-12T03:14:26.174Z,101238.87
2018-11-12T03:16:56.013Z,101232.07
2018-11-12T03:19:26.089Z,101231.14
2018-11-12T03:21:56.090Z,101235.05
2018-11-12T03:24:25.808Z,101235.47
2018-11-12T03:26:55.725Z,101243.82
2018-11-12T03:29:25.614Z,101254.45
2018-11-12T03:31:55.774Z,101255.45
2018-11-12T03:34:25.602Z,101260.28
2018-11-12T03:36:55.343Z,101269.02
2018-11-12T03:39:26.789Z,101269.14
2018-11-12T03:41:57.441Z,101274.52
2018-11-12T03:44:27.810Z,101268.91
2018-11-12T03:46:57.820Z,101263.81
2018-11-12T03:49:29.492Z,101261.80
2018-11-12T03:52:00.361Z,101277.11
2018-11-12T03:54:30.207Z,101265.28
2018-11-12T03:57:12.117Z,101267.41
2018-11-12T03:59:52.822Z,101272.13
2018-11-12T04:02:23.346Z,101269.69
2018-11-12T04:04:53.725Z,101275.84
2018-11-12T04:07:23.617Z,101281.52
2018-11-12T04:09:57.913Z,101286.44
2018-11-12T04:12:27.846Z,101300.05
2018-11-12T04:14:57.891Z,101298.27
2018-11-12T04:17:28.824Z,101291.69
2018-11-12T04:20:02.036Z,101287.33
2018-11-12T04:22:31.886Z,101287.63
2018-11-12T04:25:01.591Z,101284.62
2018-11-12T04:27:31.370Z,101281.77
2018-11-12T04:30:01.104Z,101275.73
2018-11-12T04:32:30.834Z,101273.10
2018-11-12T04:35:00.688Z,101269.70
2018-11-12T04:37:31.930Z,101270.20
2018-11-12T04:40:01.599Z,101264.87
2018-11-12T04:42:33.667Z,101266.33
2018-11-12T04:45:16.291Z,101265.13
2018-11-12T04:47:47.160Z,101268.30
2018-11-12T04:50:22.698Z,101269.20
2018-11-12T04:52:53.987Z,101266.22
2018-11-12T04:55:24.482Z,101270.28
2018-11-12T04:57:54.372Z,101269.97
2018-11-12T05:00:25.488Z,101264.44
2018-11-12T05:02:55.533Z,101260.53
2018-11-12T05:05:26.490Z,101257.97
2018-11-12T05:10:44.258Z,101255.70
2018-11-12T05:13:14.617Z,101261.03
2018-11-12T05:15:45.134Z,101250.20
2018-11-12T05:18:15.314Z,101257.20
2018-11-12T05:23:37.080Z,101248.95
2018-11-12T05:26:08.264Z,101245.12
2018-11-12T05:28:37.940Z,101242.61
2018-11-12T05:31:17.667Z,101240.59
2018-11-12T05:33:47.370Z,101238.91
2018-11-12T05:36:17.090Z,101238.56
2018-11-12T05:38:47.862Z,101240.41
2018-11-12T05:41:31.318Z,101231.84
2018-11-12T05:44:04.324Z,101228.61
2018-11-12T05:46:38.406Z,101229.58
2018-11-12T05:49:08.246Z,101231.78
2018-11-12T05:51:47.617Z,101234.95
2018-11-12T05:54:18.883Z,101233.70
2018-11-12T05:57:03.460Z,101231.61
2018-11-12T05:59:35.179Z,101230.76
2018-11-12T06:02:05.662Z,101229.52
2018-11-12T06:04:37.842Z,101238.37
2018-11-12T06:07:14.313Z,101242.25
2018-11-12T06:09:44.153Z,101241.82
2018-11-12T06:12:13.905Z,101237.09
2018-11-12T06:14:43.860Z,101238.30
2018-11-12T06:17:14.522Z,101248.47
2018-11-12T06:19:44.652Z,101248.47
2018-11-12T06:22:16.169Z,101250.33
2018-11-12T06:24:50.941Z,101249.90
2018-11-12T06:27:21.674Z,101252.95
2018-11-12T06:30:09.010Z,101253.66
2018-11-12T06:32:39.065Z,101251.14
2018-11-12T06:35:10.237Z,101256.83
2018-11-12T06:37:40.293Z,101251.56
2018-11-12T06:40:12.394Z,101257.91
2018-11-12T06:42:43.552Z,101266.77
2018-11-12T06:45:15.411Z,101265.52
2018-11-12T06:47:46.021Z,101271.20
2018-11-12T06:50:17.774Z,101271.14
2018-11-12T06:52:57.614Z,101275.02
2018-11-12T06:55:28.998Z,101273.42
2018-11-12T06:57:59.930Z,101277.01
2018-11-12T07:00:32.380Z,101274.63
2018-11-12T07:03:08.258Z,101278.61
2018-11-12T07:05:38.958Z,101284.48
2018-11-12T07:08:15.994Z,101285.19
2018-11-12T07:10:46.854Z,101287.94
2018-11-12T07:13:27.744Z,101284.05
2018-11-12T07:16:12.840Z,101289.98
2018-11-12T07:19:00.443Z,101296.33
2018-11-12T07:21:30.309Z,101299.42
2018-11-12T07:24:00.087Z,101301.24
2018-11-12T07:26:30.138Z,101300.03
2018-11-12T07:29:00.053Z,101312.70
2018-11-12T07:31:30.398Z,101305.34
2018-11-12T07:34:00.122Z,101308.51
2018-11-12T07:36:29.849Z,101310.36
2018-11-12T07:39:01.082Z,101321.28
2018-11-12T07:41:30.919Z,101320.75
2018-11-12T07:44:00.707Z,101315.94
2018-11-12T07:46:30.688Z,101308.66
2018-11-12T07:49:00.447Z,101317.48
2018-11-12T07:51:30.275Z,101316.66
2018-11-12T07:54:00.313Z,101313.60
2018-11-12T07:56:30.250Z,101311.86
2018-11-12T07:58:59.875Z,101317.12
2018-11-12T08:01:29.668Z,101322.50
2018-11-12T08:03:59.368Z,101326.95
2018-11-12T08:06:29.022Z,101323.22
2018-11-12T08:08:58.839Z,101324.17
2018-11-12T08:11:28.420Z,101314.07
2018-11-12T08:13:58.014Z,101311.61
2018-11-12T08:16:27.861Z,101325.25
2018-11-12T08:18:58.402Z,101329.20
2018-11-12T08:21:28.130Z,101318.84
2018-11-12T08:23:57.825Z,101316.31
2018-11-12T08:26:27.741Z,101325.64
2018-11-12T08:28:57.784Z,101327.88
2018-11-12T08:31:27.506Z,101317.98
2018-11-12T08:33:57.319Z,101310.11
2018-11-12T08:36:27.088Z,101309.82
2018-11-12T08:38:58.451Z,101315.98
2018-11-12T08:41:30.378Z,101317.41
2018-11-12T08:44:01.101Z,101317.54
2018-11-12T08:46:30.753Z,101309.31
2018-11-12T08:49:00.411Z,101308.31
2018-11-12T08:51:30.165Z,101308.88
2018-11-12T08:54:00.646Z,101310.34
2018-11-12T08:56:31.358Z,101316.57
2018-11-12T08:59:03.527Z,101311.89
2018-11-12T09:01:33.310Z,101309.30
2018-11-12T09:04:03.159Z,101308.11
2018-11-12T09:06:32.917Z,101314.73
2018-11-12T09:09:02.975Z,101309.56
2018-11-12T09:11:32.903Z,101303.92
2018-11-12T09:14:02.770Z,101310.16
2018-11-12T09:16:32.532Z,101311.94
2018-11-12T09:19:02.566Z,101315.07
2018-11-12T09:21:32.341Z,101312.89
2018-11-12T09:24:02.403Z,101308.11
2018-11-12T09:26:32.190Z,101313.48
2018-11-12T09:29:01.869Z,101313.48
2018-11-12T09:31:31.804Z,101313.55
2018-11-12T09:34:01.415Z,101315.40
2018-11-12T09:36:31.085Z,101316.33
2018-11-12T09:39:00.779Z,101308.91
2018-11-12T09:41:30.562Z,101309.44
2018-11-12T09:44:00.152Z,101305.94
2018-11-12T09:46:30.251Z,101296.77
2018-11-12T09:48:59.977Z,101303.46
2018-11-12T09:51:29.612Z,101297.76
2018-11-12T09:53:59.485Z,101298.28
2018-11-12T09:56:29.163Z,101294.39
2018-11-12T09:59:01.438Z,101299.30
2018-11-12T10:01:31.610Z,101295.38
2018-11-12T10:04:15.704Z,101303.81
2018-11-12T10:06:57.063Z,101304.61
2018-11-12T10:09:30.476Z,101303.39
2018-11-12T10:12:01.256Z,101307.94
2018-11-12T10:14:31.143Z,101302.30
2018-11-12T10:16:59.982Z,101295.63
2018-11-12T10:19:28.801Z,101299.29
2018-11-12T10:22:06.365Z,101285.24
2018-11-12T10:27:19.277Z,101302.23
2018-11-12T10:29:48.943Z,101305.80
2018-11-12T10:32:18.640Z,101310.27
2018-11-12T10:34:48.256Z,101313.96
2018-11-12T10:37:18.171Z,101311.35
2018-11-12T10:39:47.939Z,101298.13
2018-11-12T10:42:17.712Z,101291.13
2018-11-12T10:44:48.341Z,101301.67
2018-11-12T10:47:18.095Z,101307.66
2018-11-12T10:49:47.788Z,101308.62
2018-11-12T10:52:17.624Z,101313.04
2018-11-12T10:54:47.425Z,101309.14
2018-11-12T10:57:19.467Z,101309.84
2018-11-12T10:59:49.240Z,101306.78
2018-11-12T11:02:24.107Z,101313.04
2018-11-12T11:04:53.857Z,101313.53
2018-11-12T11:07:23.574Z,101315.80
2018-11-12T11:09:53.140Z,101320.55
2018-11-12T11:12:22.964Z,101325.41
2018-11-12T11:14:52.760Z,101322.92
2018-11-12T11:17:23.788Z,101317.22
2018-11-12T11:19:53.966Z,101321.08
2018-11-12T11:22:23.689Z,101325.66
2018-11-12T11:24:54.325Z,101326.09
2018-11-12T11:27:24.762Z,101326.64
2018-11-12T11:29:54.405Z,101327.44
2018-11-12T11:32:25.223Z,101326.98
2018-11-12T11:34:55.301Z,101326.66
2018-11-12T11:37:25.925Z,101317.31
2018-11-12T11:39:56.522Z,101330.17
2018-11-12T11:42:26.149Z,101326.34
2018-11-12T11:44:55.782Z,101324.59
2018-11-12T11:47:25.465Z,101323.27
2018-11-12T11:49:55.051Z,101312.71
2018-11-12T11:52:24.704Z,101316.86
2018-11-12T11:54:54.420Z,101317.28
2018-11-12T11:57:24.163Z,101322.56
2018-11-12T11:59:53.862Z,101322.26
2018-11-12T12:02:23.798Z,101319.09
2018-11-12T12:05:00.243Z,101318.70
2018-11-12T12:07:30.527Z,101321.83
2018-11-12T12:10:00.260Z,101317.80
2018-11-12T12:12:34.505Z,101318.29
2018-11-12T12:15:05.029Z,101317.22
2018-11-12T12:17:34.873Z,101317.87
2018-11-12T12:20:07.126Z,101325.79
2018-11-12T12:22:36.782Z,101321.98
2018-11-12T12:25:09.047Z,101319.80
2018-11-12T12:27:41.571Z,101318.73
2018-11-12T12:30:13.722Z,101320.97
2018-11-12T12:32:44.484Z,101317.07
2018-11-12T12:35:14.752Z,101322.23
2018-11-12T12:37:45.206Z,101319.98
2018-11-12T12:40:17.874Z,101316.30
2018-11-12T12:42:47.476Z,101321.82
2018-11-12T12:45:18.484Z,101320.11
2018-11-12T12:47:48.714Z,101315.20
2018-11-12T12:50:19.138Z,101318.02
2018-11-12T12:52:48.931Z,101311.41
2018-11-12T12:55:20.772Z,101313.62
2018-11-12T12:57:50.627Z,101313.69
2018-11-12T13:00:24.631Z,101312.08
2018-11-12T13:02:54.320Z,101312.73
2018-11-12T13:05:25.414Z,101317.45
2018-11-12T13:07:55.720Z,101316.41
2018-11-12T13:10:25.768Z,101314.85
2018-11-12T13:12:55.404Z,101312.02
2018-11-12T13:15:25.078Z,101312.95
2018-11-12T13:17:54.880Z,101306.19
2018-11-12T13:20:26.225Z,101306.71
2018-11-12T13:22:59.697Z,101298.70
2018-11-12T13:25:29.413Z,101298.57
2018-11-12T13:27:59.165Z,101305.33
2018-11-12T13:30:28.818Z,101286.33
2018-11-12T13:32:59.642Z,101283.09
2018-11-12T13:35:29.807Z,101283.12
2018-11-12T13:37:59.453Z,101281.95
2018-11-12T13:40:30.049Z,101287.72
2018-11-12T13:43:00.648Z,101293.80
2018-11-12T13:45:30.385Z,101292.86
2018-11-12T13:48:00.614Z,101297.50
2018-11-12T13:50:31.313Z,101297.10
2018-11-12T13:53:02.348Z,101300.66
2018-11-12T13:55:32.065Z,101289.70
2018-11-12T13:58:01.829Z,101296.67
2018-11-12T14:00:32.027Z,101302.09
2018-11-12T14:03:01.690Z,101301.81
2018-11-12T14:05:31.453Z,101296.56
2018-11-12T14:08:01.839Z,101302.36
2018-11-12T14:10:31.889Z,101301.75
2018-11-12T14:13:01.781Z,101311.08
2018-11-12T14:15:31.499Z,101321.02
2018-11-12T14:18:01.279Z,101315.05
2018-11-12T14:20:31.190Z,101324.72
2018-11-12T14:23:00.923Z,101333.45
2018-11-12T14:25:30.647Z,101323.96
2018-11-12T14:28:00.419Z,101347.36
2018-11-12T14:30:31.091Z,101338.73
2018-11-12T14:33:00.806Z,101334.02
2018-11-12T14:35:30.770Z,101340.66
2018-11-12T14:38:00.728Z,101344.62
2018-11-12T14:40:30.509Z,101349.72
2018-11-12T14:43:00.200Z,101359.91
2018-11-12T14:45:29.821Z,101371.37
2018-11-12T14:47:59.394Z,101370.61
2018-11-12T14:50:29.090Z,101376.34
2018-11-12T14:52:58.713Z,101372.38
2018-11-12T14:55:28.381Z,101386.17
2018-11-12T14:57:58.981Z,101390.07
2018-11-12T15:00:28.686Z,101385.66
2018-11-12T15:02:59.899Z,101380.45
2018-11-12T15:05:29.848Z,101371.59
2018-11-12T15:07:59.634Z,101373.98
2018-11-12T15:10:29.289Z,101384.33
2018-11-12T15:12:58.921Z,101384.85
2018-11-12T15:15:28.710Z,101388.88
2018-11-12T15:17:58.489Z,101398.12
2018-11-12T15:20:28.236Z,101403.80
2018-11-12T15:22:58.058Z,101406.93
2018-11-12T15:25:28.076Z,101400.36
2018-11-12T15:27:57.743Z,101398.20
2018-11-12T15:30:27.668Z,101401.31
2018-11-12T15:32:57.541Z,101402.60
2018-11-12T15:35:27.224Z,101398.15
2018-11-12T15:37:56.936Z,101403.48
2018-11-12T15:40:26.657Z,101407.76
2018-11-12T15:42:56.323Z,101404.29
2018-11-12T15:45:26.409Z,101410.37
2018-11-12T15:47:56.284Z,101405.45
2018-11-12T15:50:32.712Z,101414.97
2018-11-12T15:53:02.419Z,101415.27
2018-11-12T15:55:32.250Z,101417.52
2018-11-12T15:58:02.112Z,101418.41
2018-11-12T16:00:32.172Z,101417.09
2018-11-12T16:03:01.946Z,101427.43
2018-11-12T16:05:31.697Z,101428.72
2018-11-12T16:08:02.390Z,101425.92
2018-11-12T16:10:32.143Z,101425.92
2018-11-12T16:13:01.843Z,101422.39
2018-11-12T16:15:31.476Z,101427.17
2018-11-12T16:18:01.171Z,101438.52
2018-11-12T16:20:31.015Z,101448.98
2018-11-12T16:23:01.517Z,101449.69
2018-11-12T16:25:31.199Z,101434.47
2018-11-12T16:28:01.023Z,101430.95
2018-11-12T16:30:30.717Z,101431.64
2018-11-12T16:33:00.455Z,101437.73
2018-11-12T16:35:30.134Z,101444.66
2018-11-12T16:37:59.852Z,101449.34
2018-11-12T16:40:29.612Z,101449.97
2018-11-12T16:42:59.275Z,101441.52
2018-11-12T16:45:28.917Z,101451.61
2018-11-12T16:47:58.644Z,101458.03
2018-11-12T16:50:28.376Z,101465.34
2018-11-12T16:52:58.104Z,101472.27
2018-11-12T16:55:27.778Z,101483.06
2018-11-12T16:57:57.478Z,101476.40
2018-11-12T17:00:27.477Z,101485.09
2018-11-12T17:02:57.173Z,101504.34
2018-11-12T17:05:27.867Z,101510.72
2018-11-12T17:07:57.996Z,101519.76
2018-11-12T17:10:28.097Z,101523.95
2018-11-12T17:12:57.705Z,101523.73
2018-11-12T17:15:27.365Z,101518.17
2018-11-12T17:17:56.974Z,101518.17
2018-11-12T17:20:26.587Z,101525.45
2018-11-12T17:22:56.215Z,101524.98
2018-11-12T17:25:25.814Z,101518.41
2018-11-12T17:27:55.528Z,101520.84
2018-11-12T17:30:25.140Z,101505.23
2018-11-12T17:32:55.330Z,101512.82
2018-11-12T17:35:25.801Z,101516.31
2018-11-12T17:37:55.462Z,101518.95
2018-11-12T17:40:26.401Z,101519.73
2018-11-12T17:42:56.733Z,101528.84
2018-11-12T17:45:27.671Z,101536.75
2018-11-12T17:47:58.340Z,101541.48
2018-11-12T17:50:28.015Z,101547.99
2018-11-12T17:52:57.600Z,101558.42
2018-11-12T17:55:27.373Z,101548.23
2018-11-12T17:57:57.020Z,101550.12
2018-11-12T18:00:30.325Z,101554.08
2018-11-12T18:02:59.939Z,101550.02
2018-11-12T18:05:29.602Z,101554.81
2018-11-12T18:07:59.362Z,101564.03
2018-11-12T18:10:29.480Z,101562.98
2018-11-12T18:12:59.365Z,101569.03
2018-11-12T18:15:29.082Z,101570.66
2018-11-12T18:17:58.712Z,101567.12
2018-11-12T18:20:29.022Z,101572.82
2018-11-12T18:22:58.817Z,101578.70
2018-11-12T18:25:28.598Z,101588.27
2018-11-12T18:27:58.290Z,101590.44
2018-11-12T18:30:29.603Z,101588.92
2018-11-12T18:32:59.602Z,101593.09
2018-11-12T18:35:29.299Z,101589.70
2018-11-12T18:37:59.037Z,101591.25
2018-11-12T18:40:29.689Z,101588.06
2018-11-12T18:42:59.448Z,101589.89
2018-11-12T18:45:29.419Z,101589.80
2018-11-12T18:47:59.690Z,101588.44
2018-11-12T18:50:30.833Z,101586.09
2018-11-12T18:53:00.484Z,101590.58
2018-11-12T18:55:30.228Z,101598.56
2018-11-12T18:58:00.063Z,101607.14
2018-11-12T19:00:29.803Z,101612.28
2018-11-12T19:02:59.380Z,101609.56
2018-11-12T19:05:29.843Z,101609.02
2018-11-12T19:08:01.060Z,101615.67
2018-11-12T19:10:32.296Z,101622.73
2018-11-12T19:13:02.006Z,101617.46
2018-11-12T19:15:35.166Z,101625.48
2018-11-12T19:18:09.690Z,101635.47
2018-11-12T19:20:39.305Z,101650.92
2018-11-12T19:23:08.974Z,101647.81
2018-11-12T19:25:38.660Z,101650.10
2018-11-12T19:28:08.436Z,101654.47
2018-11-12T19:30:38.076Z,101659.11
2018-11-12T19:33:07.793Z,101648.70
2018-11-12T19:35:37.491Z,101660.72
2018-11-12T19:38:07.345Z,101660.41
2018-11-12T19:40:36.985Z,101664.31
2018-11-12T19:43:06.781Z,101656.00
2018-11-12T19:45:36.590Z,101660.55
2018-11-12T19:48:06.425Z,101670.18
2018-11-12T19:50:36.025Z,101668.65
2018-11-12T19:53:05.908Z,101667.84
2018-11-12T19:55:35.570Z,101659.23
2018-11-12T19:58:06.797Z,101658.08
2018-11-12T20:00:36.518Z,101655.37
2018-11-12T20:03:06.170Z,101651.29
2018-11-12T20:05:35.826Z,101663.89
2018-11-12T20:08:06.036Z,101664.02
2018-11-12T20:10:35.743Z,101657.87
2018-11-12T20:13:06.501Z,101653.84
2018-11-12T20:15:36.281Z,101654.13
2018-11-12T20:18:06.156Z,101650.60
2018-11-12T20:20:35.970Z,101654.05
2018-11-12T20:23:05.890Z,101659.17
2018-11-12T20:25:35.716Z,101655.98
2018-11-12T20:28:05.751Z,101664.98
2018-11-12T20:30:37.033Z,101665.31
2018-11-12T20:33:06.989Z,101670.91
2018-11-12T20:35:36.769Z,101676.27
2018-11-12T20:38:06.513Z,101667.12
2018-11-12T20:40:36.237Z,101665.66
2018-11-12T20:43:06.133Z,101666.38
2018-11-12T20:45:35.905Z,101666.02
2018-11-12T20:48:06.112Z,101669.97
2018-11-12T20:50:53.176Z,101673.08
2018-11-12T20:53:25.021Z,101673.14
2018-11-12T20:55:56.181Z,101679.42
2018-11-12T20:58:26.483Z,101680.14
2018-11-12T21:00:56.118Z,101684.97
2018-11-12T21:03:25.818Z,101688.05
2018-11-12T21:05:58.948Z,101684.64
2018-11-12T21:08:28.734Z,101689.31
2018-11-12T21:10:58.486Z,101686.83
2018-11-12T21:13:28.384Z,101688.78
2018-11-12T21:15:58.036Z,101685.78
2018-11-12T21:18:27.702Z,101688.95
2018-11-12T21:20:57.386Z,101691.63
2018-11-12T21:23:27.259Z,101688.86
2018-11-12T21:25:56.963Z,101689.76
2018-11-12T21:28:28.940Z,101685.70
2018-11-12T21:30:59.207Z,101677.48
2018-11-12T21:33:28.910Z,101677.20
2018-11-12T21:35:58.924Z,101689.25
2018-11-12T21:38:29.126Z,101680.58
2018-11-12T21:40:58.862Z,101686.34
2018-11-12T21:43:28.792Z,101684.11
2018-11-12T21:45:58.497Z,101682.96
2018-11-12T21:48:28.283Z,101684.53
2018-11-12T21:50:58.088Z,101688.61
2018-11-12T21:53:27.888Z,101687.52
2018-11-12T21:55:57.760Z,101685.65
2018-11-12T21:58:27.474Z,101677.95
2018-11-12T22:00:57.166Z,101681.28
2018-11-12T22:03:26.838Z,101699.83
2018-11-12T22:05:56.538Z,101700.39
2018-11-12T22:08:26.315Z,101693.59
2018-11-12T22:10:55.964Z,101688.47
2018-11-12T22:13:25.679Z,101691.77
2018-11-12T22:15:59.492Z,101682.66
2018-11-12T22:18:34.493Z,101678.99
2018-11-12T22:21:08.803Z,101685.56
2018-11-12T22:23:38.754Z,101684.64
2018-11-12T22:26:09.722Z,101675.16
2018-11-12T22:28:39.471Z,101677.92
2018-11-12T22:31:09.107Z,101683.60
2018-11-12T22:33:38.680Z,101679.44
2018-11-12T22:36:08.381Z,101691.49
2018-11-12T22:38:37.991Z,101688.44
2018-11-12T22:41:07.785Z,101692.89
2018-11-12T22:43:37.426Z,101683.83
2018-11-12T22:46:08.099Z,101681.73
2018-11-12T22:48:37.828Z,101685.25
2018-11-12T22:51:07.466Z,101682.02
2018-11-12T22:53:37.146Z,101685.59
2018-11-12T22:56:07.265Z,101680.70
2018-11-12T22:58:36.873Z,101682.81
2018-11-12T23:01:06.761Z,101685.77
2018-11-12T23:03:36.414Z,101685.67
2018-11-12T23:06:11.840Z,101689.62
2018-11-12T23:08:42.276Z,101682.29
2018-11-12T23:11:14.479Z,101692.67
2018-11-12T23:13:44.195Z,101692.58
2018-11-12T23:16:13.853Z,101698.70
2018-11-12T23:18:43.574Z,101703.71
2018-11-12T23:21:14.123Z,101693.49
2018-11-12T23:23:43.992Z,101691.41
2018-11-12T23:26:13.810Z,101692.59
2018-11-12T23:28:44.051Z,101698.68
2018-11-12T23:31:16.854Z,101694.52
2018-11-12T23:33:46.564Z,101695.84
2018-11-12T23:36:16.408Z,101694.11
2018-11-12T23:38:46.101Z,101690.49
2018-11-12T23:41:18.756Z,101681.23
2018-11-12T23:43:48.566Z,101687.81
2018-11-12T23:46:18.325Z,101695.70
2018-11-12T23:48:48.077Z,101690.02
2018-11-12T23:51:17.750Z,101685.18
2018-11-12T23:53:47.442Z,101681.05
2018-11-12T23:56:17.180Z,101683.50
2018-11-12T23:58:46.825Z,101681.23
